Time;durP1;ratioP1;P1;durP2;ratioP2;P2;SDS_P1;SDS_P2;PMS_P1;PMS_P2;Temp;Humidity;BMP_temperature;BMP_pressure;BME280_temperature;BME280_humidity;BME280_pressure;Samples;Min_cycle;Max_cycle;Signal;HPM_P1;HPM_P2
2022/02/08 00:01:29;;;;;;;;;;;;;;;4.93;54.71;99191.85;117363;1186;22962;-57
2022/02/08 00:03:57;;;;;;;;;;;;;;;4.85;54.85;99195.23;117404;1183;23404;-57
2022/02/08 00:06:46;;;;;;;;;;;;;;;4.85;54.87;99195.77;117397;1183;21831;-57
2022/02/08 00:09:16;;;;;;;;;;;;;;;4.80;54.97;99200.83;117414;1183;23056;-55
2022/02/08 00:11:44;;;;;;;;;;;;;;;4.75;54.89;99206.60;117408;1182;21836;-57
2022/02/08 00:14:12;;;;;;;;;;;;;;;4.71;54.91;99204.71;117373;1185;21831;-57
2022/02/08 00:16:41;;;;;;;;;;;;;;;4.67;54.74;99200.94;117395;1182;21868;-57
2022/02/08 00:19:09;;;;;;;;;;;;;;;4.63;54.99;99207.91;117340;1186;21826;-58
2022/02/08 00:21:37;;;;;;;;;;;;;;;4.58;54.99;99209.85;117383;1185;22926;-58
2022/02/08 00:24:06;;;;;;;;;;;;;;;4.55;54.90;99212.13;117365;1186;21851;-56
2022/02/08 00:26:35;;;;;;;;;;;;;;;4.53;54.89;99213.88;117467;1185;21888;-58
2022/02/08 00:29:03;;;;;;;;;;;;;;;4.53;54.89;99214.92;117435;1186;21873;-57
2022/02/08 00:31:31;;;;;;;;;;;;;;;4.51;54.95;99216.33;117404;1183;21845;-58
2022/02/08 00:34:00;;;;;;;;;;;;;;;4.49;55.35;99218.95;117416;1182;21848;-58
2022/02/08 00:36:28;;;;;;;;;;;;;;;4.47;55.15;99220.34;117450;1183;21835;-58
2022/02/08 00:38:56;;;;;;;;;;;;;;;4.48;55.23;99216.86;117399;1185;21838;-56
2022/02/08 00:41:25;;;;;;;;;;;;;;;4.47;55.26;99221.02;117364;1183;21963;-56
2022/02/08 00:44:03;;;;;;;;;;;;;;;4.48;55.24;99219.64;117377;1182;21836;-55
2022/02/08 00:46:49;;;;;;;;;;;;;;;4.49;55.22;99222.41;117431;1186;21851;-55
2022/02/08 00:49:17;;;;;;;;;;;;;;;4.49;55.31;99228.84;117423;1183;22736;-55
2022/02/08 00:51:52;;;;;;;;;;;;;;;4.48;55.23;99229.71;117459;1184;21838;-57
2022/02/08 00:54:20;;;;;;;;;;;;;;;4.47;55.46;99233.19;117413;1183;21837;-56
2022/02/08 00:56:48;;;;;;;;;;;;;;;4.47;55.43;99233.55;117419;1183;21845;-56
2022/02/08 00:59:16;;;;;;;;;;;;;;;4.48;55.24;99235.96;117391;1182;23436;-56
2022/02/08 01:01:44;;;;;;;;;;;;;;;4.48;55.16;99239.61;117355;1185;21960;-58
2022/02/08 01:04:13;;;;;;;;;;;;;;;4.49;55.35;99239.45;117459;1186;21955;-57
2022/02/08 01:06:42;;;;;;;;;;;;;;;4.49;55.37;99243.09;117337;1183;21826;-57
2022/02/08 01:11:39;;;;;;;;;;;;;;;4.47;55.40;99242.91;117336;1182;22303;-57
2022/02/08 01:14:08;;;;;;;;;;;;;;;4.46;55.45;99246.23;117466;1183;21835;-57
2022/02/08 01:16:36;;;;;;;;;;;;;;;4.43;55.39;99243.13;117412;1183;23426;-58
2022/02/08 01:19:05;;;;;;;;;;;;;;;4.39;55.28;99245.23;117372;1183;21826;-55
2022/02/08 01:21:34;;;;;;;;;;;;;;;4.34;55.27;99248.72;117384;1186;23252;-57
2022/02/08 01:24:02;;;;;;;;;;;;;;;4.28;55.16;99251.36;117354;1185;21838;-55
2022/02/08 01:26:33;;;;;;;;;;;;;;;4.22;55.11;99256.59;117341;1185;21848;-56
2022/02/08 01:29:18;;;;;;;;;;;;;;;4.16;55.22;99259.23;117491;1183;22183;-57
2022/02/08 01:31:49;;;;;;;;;;;;;;;4.09;55.24;99263.59;117354;1182;24122;-57
2022/02/08 01:34:36;;;;;;;;;;;;;;;4.02;54.95;99265.01;117371;1186;24203;-55
2022/02/08 01:37:25;;;;;;;;;;;;;;;3.93;55.10;99268.86;117380;1186;22944;-56
2022/02/08 01:42:44;;;;;;;;;;;;;;;3.76;55.20;99267.00;117335;1182;23416;-55
2022/02/08 01:48:05;;;;;;;;;;;;;;;3.65;55.16;99265.28;117371;1182;21844;-55
2022/02/08 01:50:34;;;;;;;;;;;;;;;3.60;55.16;99273.45;117384;1186;21859;-55
2022/02/08 01:53:03;;;;;;;;;;;;;;;3.57;55.28;99277.95;117336;1185;21838;-55
2022/02/08 01:55:32;;;;;;;;;;;;;;;3.56;55.13;99281.60;117411;1185;21988;-57
2022/02/08 01:58:18;;;;;;;;;;;;;;;3.55;55.13;99288.36;117443;1183;21839;-55
2022/02/08 02:00:47;;;;;;;;;;;;;;;3.58;55.44;99293.40;117449;1185;22979;-54
2022/02/08 02:03:20;;;;;;;;;;;;;;;3.62;55.44;99297.04;117397;1176;21842;-55
2022/02/08 02:05:52;;;;;;;;;;;;;;;3.66;55.47;99299.98;117406;1183;22885;-57
2022/02/08 02:08:20;;;;;;;;;;;;;;;3.73;55.52;99302.57;117448;1182;23413;-54
2022/02/08 02:10:49;;;;;;;;;;;;;;;3.80;55.59;99300.81;117455;1183;21837;-57
2022/02/08 02:13:41;;;;;;;;;;;;;;;3.89;55.74;99296.13;117455;1182;21841;-56
2022/02/08 02:16:06;;;;;;;;;;;;;;;3.97;55.55;99298.88;117426;1185;24130;-57
2022/02/08 02:18:48;;;;;;;;;;;;;;;4.04;55.66;99300.41;117417;1182;21836;-57
2022/02/08 02:21:16;;;;;;;;;;;;;;;4.11;55.67;99303.00;117471;1185;22413;-55
2022/02/08 02:23:45;;;;;;;;;;;;;;;4.18;55.73;99299.33;117402;1182;21836;-57
2022/02/08 02:26:14;;;;;;;;;;;;;;;4.24;55.80;99300.18;117447;1183;23413;-55
2022/02/08 02:28:42;;;;;;;;;;;;;;;4.28;55.87;99302.93;117399;1183;21850;-57
2022/02/08 02:31:10;;;;;;;;;;;;;;;4.33;55.92;99301.70;117411;1186;21835;-55
2022/02/08 02:33:38;;;;;;;;;;;;;;;4.36;55.75;99297.00;117417;1182;21838;-55
2022/02/08 02:36:07;;;;;;;;;;;;;;;4.41;55.94;99294.55;117452;1182;21836;-57
2022/02/08 02:38:35;;;;;;;;;;;;;;;4.45;56.05;99298.70;117381;1185;22943;-55
2022/02/08 02:41:03;;;;;;;;;;;;;;;4.50;55.89;99301.11;117416;1182;23512;-58
2022/02/08 02:43:31;;;;;;;;;;;;;;;4.53;56.14;99299.88;117434;1182;21838;-57
2022/02/08 02:46:02;;;;;;;;;;;;;;;4.57;55.92;99305.41;117413;1186;22047;-55
2022/02/08 02:48:30;;;;;;;;;;;;;;;4.63;55.92;99309.20;117455;1182;21835;-59
2022/02/08 02:50:58;;;;;;;;;;;;;;;4.69;55.98;99312.13;117432;1186;21836;-57
2022/02/08 02:53:26;;;;;;;;;;;;;;;4.75;56.14;99319.92;117479;1183;23043;-57
2022/02/08 02:55:54;;;;;;;;;;;;;;;4.81;55.95;99322.67;117371;1185;21845;-55
2022/02/08 02:58:29;;;;;;;;;;;;;;;4.85;56.07;99316.89;117391;1182;23404;-55
2022/02/08 03:01:17;;;;;;;;;;;;;;;4.91;55.86;99314.26;117441;1186;22945;-56
2022/02/08 03:03:58;;;;;;;;;;;;;;;4.96;56.02;99315.63;117428;1185;21841;-57
2022/02/08 03:17:39;;;;;;;;;;;;;;;5.08;55.80;99335.02;117405;1182;21854;-56
2022/02/08 03:20:08;;;;;;;;;;;;;;;5.10;56.25;99335.52;117462;1182;21836;-58
2022/02/08 03:22:37;;;;;;;;;;;;;;;5.12;55.98;99342.29;117390;1185;23527;-58
2022/02/08 03:25:06;;;;;;;;;;;;;;;5.13;56.10;99351.15;117419;1185;21835;-56
2022/02/08 03:27:34;;;;;;;;;;;;;;;5.12;56.26;99367.50;117471;1186;21848;-57
2022/02/08 03:30:03;;;;;;;;;;;;;;;5.15;56.18;99372.70;117462;1186;21838;-56
2022/02/08 03:32:33;;;;;;;;;;;;;;;5.19;56.03;99370.94;117396;1185;22093;-56
2022/02/08 03:35:03;;;;;;;;;;;;;;;5.21;56.09;99371.63;117529;1183;21835;-56
2022/02/08 03:37:34;;;;;;;;;;;;;;;5.23;56.18;99373.54;117374;1185;23310;-56
2022/02/08 03:40:08;;;;;;;;;;;;;;;5.22;56.09;99379.98;117446;1186;23435;-56
2022/02/08 03:42:56;;;;;;;;;;;;;;;5.23;56.12;99386.58;117394;1185;22919;-57
2022/02/08 03:45:24;;;;;;;;;;;;;;;5.23;56.38;99383.79;117318;1183;21838;-58
2022/02/08 03:47:52;;;;;;;;;;;;;;;5.22;56.33;99388.49;117426;1183;23413;-56
2022/02/08 03:50:20;;;;;;;;;;;;;;;5.21;56.37;99392.32;117410;1185;21839;-55
2022/02/08 03:52:48;;;;;;;;;;;;;;;5.20;56.14;99394.24;117423;1186;23600;-58
2022/02/08 03:55:16;;;;;;;;;;;;;;;5.20;56.20;99393.90;117447;1182;23413;-57
2022/02/08 03:57:44;;;;;;;;;;;;;;;5.20;55.98;99402.06;117409;1186;21848;-57
2022/02/08 04:00:13;;;;;;;;;;;;;;;5.19;56.20;99407.83;117391;1185;21858;-57
2022/02/08 04:02:51;;;;;;;;;;;;;;;5.20;56.20;99416.16;117413;1186;21972;-57
2022/02/08 04:05:34;;;;;;;;;;;;;;;5.21;56.31;99425.02;117363;1183;21854;-57
2022/02/08 04:08:07;;;;;;;;;;;;;;;5.23;56.21;99427.45;117389;1185;24120;-58
2022/02/08 04:10:35;;;;;;;;;;;;;;;5.24;56.36;99434.05;117393;1185;22491;-58
2022/02/08 04:40:01;;;;;;;;;;;;;;;5.34;56.32;99529.67;117393;1182;21876;-58
2022/02/08 04:45:12;;;;;;;;;;;;;;;5.35;56.24;99537.31;117356;1183;21838;-58
2022/02/08 04:47:46;;;;;;;;;;;;;;;5.35;56.38;99543.58;117377;1185;23641;-58
2022/02/08 04:50:17;;;;;;;;;;;;;;;5.35;56.63;99548.28;117409;1182;21836;-57
2022/02/08 04:52:46;;;;;;;;;;;;;;;5.35;56.42;99557.51;117415;1182;22804;-59
2022/02/08 04:55:38;;;;;;;;;;;;;;;5.35;56.28;99564.45;117431;1185;21835;-57
2022/02/08 04:58:19;;;;;;;;;;;;;;;5.35;56.35;99570.70;117468;1185;23432;-57
2022/02/08 05:01:07;;;;;;;;;;;;;;;5.36;56.28;99578.02;117392;1186;22972;-58
2022/02/08 05:45:02;;;;;;;;;;;;;;;5.10;56.26;99690.63;117378;1185;23531;-57
2022/02/08 05:47:31;;;;;;;;;;;;;;;5.06;56.34;99698.83;117369;1185;21838;-55
2022/02/08 05:50:24;;;;;;;;;;;;;;;5.01;56.31;99709.08;117451;1183;21844;-57
2022/02/08 05:55:29;;;;;;;;;;;;;;;4.92;56.33;99722.63;117422;1182;23435;-58
2022/02/08 05:57:57;;;;;;;;;;;;;;;4.89;56.33;99721.77;117438;1185;22909;-55
2022/02/08 06:00:28;;;;;;;;;;;;;;;4.85;56.43;99723.50;117446;1182;23432;-54
2022/02/08 06:02:58;;;;;;;;;;;;;;;4.82;56.31;99722.63;117395;1182;21834;-55
2022/02/08 06:05:26;;;;;;;;;;;;;;;4.79;56.44;99719.67;117396;1182;23515;-57
2022/02/08 06:07:55;;;;;;;;;;;;;;;4.75;56.56;99722.27;117433;1183;21836;-58
2022/02/08 06:10:23;;;;;;;;;;;;;;;4.72;56.69;99720.88;117360;1183;21838;-58
2022/02/08 06:12:53;;;;;;;;;;;;;;;4.70;56.38;99729.39;117451;1183;23515;-55
2022/02/08 06:15:23;;;;;;;;;;;;;;;4.69;56.47;99730.77;117402;1183;21836;-55
2022/02/08 06:17:55;;;;;;;;;;;;;;;4.66;56.32;99734.25;117450;1183;21835;-54
2022/02/08 06:20:23;;;;;;;;;;;;;;;4.64;56.42;99743.46;117353;1182;21838;-59
2022/02/08 06:22:52;;;;;;;;;;;;;;;4.60;56.43;99739.11;117393;1185;24169;-58
2022/02/08 06:25:20;;;;;;;;;;;;;;;4.58;56.66;99741.55;117360;1182;21965;-57
2022/02/08 06:27:51;;;;;;;;;;;;;;;4.57;56.50;99747.63;117467;1182;21853;-55
2022/02/08 06:30:21;;;;;;;;;;;;;;;4.54;56.61;99753.88;117402;1183;24188;-59
2022/02/08 06:32:51;;;;;;;;;;;;;;;4.51;56.57;99758.73;117329;1182;21831;-60
2022/02/08 06:35:27;;;;;;;;;;;;;;;4.49;56.69;99768.27;119414;1184;21773;-56
2022/02/08 06:37:58;;;;;;;;;;;;;;;4.47;56.78;99763.93;119418;1182;21802;-60
2022/02/08 06:40:26;;;;;;;;;;;;;;;4.45;56.66;99765.30;119431;1182;21749;-58
2022/02/08 06:42:57;;;;;;;;;;;;;;;4.43;56.51;99768.95;119426;1182;21814;-59
2022/02/08 06:45:25;;;;;;;;;;;;;;;4.42;56.77;99774.16;119474;1184;21758;-56
2022/02/08 06:47:58;;;;;;;;;;;;;;;4.40;56.75;99773.65;119499;1185;21816;-55
2022/02/08 06:50:26;;;;;;;;;;;;;;;4.40;56.66;99778.85;119153;1185;22908;-56
2022/02/08 06:52:54;;;;;;;;;;;;;;;4.40;56.97;99779.03;117397;1186;21835;-58
2022/02/08 06:55:24;;;;;;;;;;;;;;;4.40;57.03;99782.68;117448;1183;21835;-59
2022/02/08 06:58:07;;;;;;;;;;;;;;;4.41;56.94;99795.37;117414;1182;22995;-59
2022/02/08 07:00:42;;;;;;;;;;;;;;;4.40;56.85;99798.49;117386;1185;21841;-59
2022/02/08 07:03:14;;;;;;;;;;;;;;;4.39;57.06;99798.31;117401;1186;23650;-59
2022/02/08 07:05:43;;;;;;;;;;;;;;;4.38;57.08;99804.05;117370;1185;22619;-57
2022/02/08 07:08:28;;;;;;;;;;;;;;;4.39;57.26;99806.64;117412;1182;24122;-57
2022/02/08 07:10:57;;;;;;;;;;;;;;;4.39;57.17;99809.09;117378;1185;21964;-60
2022/02/08 07:13:25;;;;;;;;;;;;;;;4.40;57.16;99818.81;117399;1182;23413;-61
2022/02/08 07:15:53;;;;;;;;;;;;;;;4.39;57.10;99821.23;117421;1186;22597;-56
2022/02/08 07:18:25;;;;;;;;;;;;;;;4.40;57.25;99818.48;117411;1186;23416;-61
2022/02/08 07:20:54;;;;;;;;;;;;;;;4.40;57.34;99824.02;117367;1182;23407;-60
2022/02/08 07:23:22;;;;;;;;;;;;;;;4.41;57.32;99822.11;117405;1182;23541;-60
2022/02/08 07:25:53;;;;;;;;;;;;;;;4.38;57.09;99816.89;117423;1182;23411;-58
2022/02/08 07:28:21;;;;;;;;;;;;;;;4.37;57.20;99818.80;117334;1182;22909;-59
2022/02/08 07:30:58;;;;;;;;;;;;;;;4.37;57.16;99827.48;117475;1183;21843;-59
2022/02/08 07:33:27;;;;;;;;;;;;;;;4.38;57.19;99835.14;117436;1183;21839;-59
2022/02/08 07:36:04;;;;;;;;;;;;;;;4.39;57.26;99839.47;117434;1185;23420;-58
2022/02/08 07:38:37;;;;;;;;;;;;;;;4.40;57.23;99847.83;117374;1184;21838;-58
2022/02/08 07:43:33;;;;;;;;;;;;;;;4.42;57.12;99853.73;117472;1185;21898;-59
2022/02/08 07:46:02;;;;;;;;;;;;;;;4.44;57.21;99859.82;117439;1185;21850;-54
2022/02/08 07:48:30;;;;;;;;;;;;;;;4.46;57.36;99858.44;117443;1183;23435;-58
2022/02/08 07:50:58;;;;;;;;;;;;;;;4.49;57.44;99859.84;117418;1185;21838;-59
2022/02/08 07:53:28;;;;;;;;;;;;;;;4.53;57.27;99867.52;117425;1183;21962;-55
2022/02/08 07:55:56;;;;;;;;;;;;;;;4.57;57.28;99877.43;117447;1182;24248;-55
2022/02/08 07:58:24;;;;;;;;;;;;;;;4.61;57.23;99883.89;117374;1182;21838;-58
2022/02/08 08:00:53;;;;;;;;;;;;;;;4.63;57.29;99885.96;117429;1182;23534;-56
2022/02/08 08:03:21;;;;;;;;;;;;;;;4.66;57.30;99886.84;117431;1183;21833;-54
2022/02/08 08:05:51;;;;;;;;;;;;;;;4.68;57.18;99892.58;117450;1186;21853;-58
2022/02/08 08:08:25;;;;;;;;;;;;;;;4.69;57.27;99899.89;117364;1183;21840;-55
2022/02/08 08:10:54;;;;;;;;;;;;;;;4.71;57.39;99901.64;117447;1185;22944;-54
2022/02/08 08:13:22;;;;;;;;;;;;;;;4.74;57.44;99896.63;117410;1183;23525;-55
2022/02/08 08:16:05;;;;;;;;;;;;;;;4.78;57.55;99904.63;117354;1182;21826;-55
2022/02/08 08:21:02;;;;;;;;;;;;;;;4.87;57.60;99906.05;117438;1184;21838;-60
2022/02/08 08:23:30;;;;;;;;;;;;;;;4.90;57.43;99909.18;117433;1185;21963;-58
2022/02/08 08:25:59;;;;;;;;;;;;;;;4.93;57.69;99917.18;117356;1185;21829;-55
2022/02/08 08:28:27;;;;;;;;;;;;;;;4.94;57.35;99931.27;117419;1185;21839;-55
2022/02/08 08:30:56;;;;;;;;;;;;;;;4.94;57.06;99936.48;117363;1185;21844;-58
2022/02/08 08:33:24;;;;;;;;;;;;;;;4.93;57.42;99943.27;117409;1183;21836;-59
2022/02/08 08:36:07;;;;;;;;;;;;;;;4.91;57.40;99944.14;117366;1182;21841;-56
2022/02/08 08:38:35;;;;;;;;;;;;;;;4.92;57.10;99942.39;117457;1186;22952;-59
2022/02/08 08:41:21;;;;;;;;;;;;;;;4.91;57.32;99939.95;117471;1182;23525;-56
2022/02/08 08:44:17;;;;;;;;;;;;;;;4.93;57.28;99945.00;117380;1185;22154;-56
2022/02/08 08:52:03;;;;;;;;;;;;;;;4.93;57.25;99946.40;117322;1183;21833;-59
2022/02/08 08:54:31;;;;;;;;;;;;;;;4.93;57.42;99957.02;117378;1185;21845;-58
2022/02/08 08:56:59;;;;;;;;;;;;;;;4.98;57.13;99955.29;117315;1185;22613;-55
2022/02/08 08:59:27;;;;;;;;;;;;;;;5.07;57.11;99961.41;117342;1185;21838;-58
2022/02/08 09:01:56;;;;;;;;;;;;;;;5.13;57.20;99973.95;117405;1179;22902;-56
2022/02/08 09:04:29;;;;;;;;;;;;;;;5.17;57.47;99970.66;117464;1185;21839;-58
2022/02/08 09:06:57;;;;;;;;;;;;;;;5.11;57.10;99977.42;117297;1185;23440;-56
2022/02/08 09:09:27;;;;;;;;;;;;;;;5.14;57.41;99984.91;117369;1185;21836;-59
2022/02/08 09:30:43;;;;;;;;;;;;;;;5.22;57.35;100015.73;117407;1185;21838;-58
2022/02/08 09:33:11;;;;;;;;;;;;;;;5.28;57.68;100018.89;117381;1185;21845;-59
2022/02/08 09:35:40;;;;;;;;;;;;;;;5.32;57.77;100023.41;117344;1185;23632;-56
2022/02/08 09:38:09;;;;;;;;;;;;;;;5.34;57.72;100038.03;117445;1185;21841;-56
2022/02/08 09:40:37;;;;;;;;;;;;;;;5.37;57.48;100044.66;117356;1185;21833;-58
2022/02/08 09:43:06;;;;;;;;;;;;;;;5.39;57.51;100048.86;117193;1184;22305;-57
2022/02/08 09:45:34;;;;;;;;;;;;;;;5.40;57.56;100053.38;117349;1185;21846;-55
2022/02/08 09:48:14;;;;;;;;;;;;;;;5.36;57.62;100056.83;117435;1182;24220;-59
2022/02/08 09:50:43;;;;;;;;;;;;;;;5.34;57.81;100062.92;117370;1183;21834;-59
2022/02/08 09:53:18;;;;;;;;;;;;;;;5.32;57.57;100066.56;117352;1185;21832;-56
2022/02/08 09:55:46;;;;;;;;;;;;;;;5.30;57.46;100062.04;117363;1182;21838;-54
2022/02/08 09:58:21;;;;;;;;;;;;;;;5.31;57.68;100062.04;117382;1185;22997;-57
2022/02/08 10:00:49;;;;;;;;;;;;;;;5.34;57.44;100060.13;117404;1185;21844;-57
2022/02/08 10:03:17;;;;;;;;;;;;;;;5.39;57.90;100065.38;117404;1185;21838;-57
2022/02/08 10:05:47;;;;;;;;;;;;;;;5.42;57.64;100064.52;117439;1185;21879;-58
2022/02/08 10:08:16;;;;;;;;;;;;;;;5.43;57.67;100066.95;117308;1185;21853;-56
2022/02/08 10:10:44;;;;;;;;;;;;;;;5.42;57.71;100065.92;117385;1185;23526;-57
2022/02/08 10:23:55;;;;;;;;;;;;;;;5.43;57.66;100101.08;117318;1185;21873;-57
2022/02/08 10:26:36;;;;;;;;;;;;;;;5.42;57.60;100105.23;117467;1183;21839;-56
2022/02/08 10:29:11;;;;;;;;;;;;;;;5.38;57.64;100108.17;117432;1181;23077;-59
2022/02/08 10:40:04;;;;;;;;;;;;;;;5.34;57.64;100139.48;118084;1183;23439;-57
2022/02/08 10:42:33;;;;;;;;;;;;;;;5.34;57.67;100143.12;117363;1185;21839;-59
2022/02/08 10:45:01;;;;;;;;;;;;;;;5.36;57.42;100138.27;117341;1182;21829;-56
2022/02/08 10:47:32;;;;;;;;;;;;;;;5.36;57.94;100148.19;117374;1185;21828;-56
2022/02/08 10:50:03;;;;;;;;;;;;;;;5.38;57.84;100156.90;117383;1186;21847;-58
2022/02/08 10:52:31;;;;;;;;;;;;;;;5.38;57.60;100149.23;117426;1186;22982;-56
2022/02/08 10:55:09;;;;;;;;;;;;;;;5.37;57.61;100157.23;117387;1183;23531;-59
2022/02/08 10:57:48;;;;;;;;;;;;;;;5.38;57.78;100163.67;117317;1182;23414;-57
2022/02/08 11:00:30;;;;;;;;;;;;;;;5.38;57.42;100161.77;117417;1185;22598;-57
2022/02/08 11:03:01;;;;;;;;;;;;;;;5.39;57.58;100163.35;117302;1182;21849;-59
2022/02/08 11:08:21;;;;;;;;;;;;;;;5.42;57.58;100169.98;117325;1185;22983;-58
2022/02/08 11:16:03;;;;;;;;;;;;;;;5.44;57.54;100184.60;117419;1182;21839;-55
2022/02/08 11:26:37;;;;;;;;;;;;;;;5.61;57.83;100202.96;117435;1182;21839;-58
2022/02/08 11:29:44;;;;;;;;;;;;;;;5.65;57.96;100205.95;117286;1185;23637;-56
2022/02/08 11:32:19;;;;;;;;;;;;;;;5.69;57.71;100203.89;117338;1185;22999;-57
2022/02/08 11:46:16;;;;;;;;;;;;;;;5.96;57.78;100217.06;117413;1182;21839;-58
2022/02/08 11:49:24;;;;;;;;;;;;;;;6.00;57.86;100219.54;117372;1183;22628;-57
2022/02/08 12:07:37;;;;;;;;;;;;;;;5.85;57.51;100237.73;117390;1185;21893;-56
2022/02/08 12:10:21;;;;;;;;;;;;;;;5.82;57.71;100250.77;117432;1182;23528;-57
2022/02/08 12:13:17;;;;;;;;;;;;;;;5.80;57.94;100250.42;117387;1185;23517;-57
2022/02/08 14:09:13;;;;;;;;;;;;;;;6.08;57.15;100412.42;117383;1185;21839;-58
2022/02/08 14:12:19;;;;;;;;;;;;;;;6.06;57.06;100416.06;117310;1183;22929;-58
2022/02/08 14:15:32;;;;;;;;;;;;;;;6.03;57.14;100418.83;117451;1182;24130;-57
2022/02/08 14:25:45;;;;;;;;;;;;;;;5.90;56.89;100440.13;117436;1182;23424;-57
2022/02/08 14:31:22;;;;;;;;;;;;;;;5.81;57.03;100440.23;117393;1185;21844;-58
2022/02/08 14:48:57;;;;;;;;;;;;;;;5.72;56.89;100440.17;117383;1183;22303;-57
2022/02/08 15:08:07;;;;;;;;;;;;;;;4.82;56.43;100480.79;116975;1188;22862;-59
2022/02/08 15:13:07;;;;;;;;;;;;;;;4.66;56.64;100487.70;116922;1186;24737;-57
2022/02/08 15:18:32;;;;;;;;;;;;;;;4.47;56.36;100490.90;116927;1188;21836;-57
2022/02/08 15:21:01;;;;;;;;;;;;;;;4.37;56.19;100489.91;116902;1187;24197;-55
2022/02/08 15:23:35;;;;;;;;;;;;;;;4.31;56.25;100489.45;116907;1188;23298;-58
2022/02/08 15:26:04;;;;;;;;;;;;;;;4.27;56.24;100487.16;116953;1188;23637;-57
2022/02/08 15:28:33;;;;;;;;;;;;;;;4.22;56.35;100483.24;116894;1185;23618;-55
2022/02/08 15:31:02;;;;;;;;;;;;;;;4.15;56.18;100486.27;117230;1185;23509;-55
2022/02/08 15:33:30;;;;;;;;;;;;;;;4.08;56.11;100489.30;117402;1185;22511;-58
2022/02/08 15:35:58;;;;;;;;;;;;;;;4.00;56.12;100489.52;117381;1186;24107;-57
2022/02/08 15:38:32;;;;;;;;;;;;;;;3.95;56.27;100494.45;117344;1185;23540;-57
2022/02/08 15:41:00;;;;;;;;;;;;;;;3.89;56.29;100495.23;117380;1185;21838;-55
2022/02/08 15:43:30;;;;;;;;;;;;;;;3.83;56.08;100501.54;117417;1185;21857;-57
2022/02/08 15:46:06;;;;;;;;;;;;;;;3.79;56.40;100508.41;117363;1182;22909;-58
2022/02/08 15:48:37;;;;;;;;;;;;;;;3.75;56.27;100515.12;117417;1185;23430;-57
2022/02/08 15:51:31;;;;;;;;;;;;;;;3.72;56.28;100520.46;117413;1185;21844;-56
2022/02/08 16:07:13;;;;;;;;;;;;;;;3.61;56.27;100569.02;117421;1185;21836;-57
2022/02/08 16:09:54;;;;;;;;;;;;;;;3.58;56.35;100575.03;117417;1185;23414;-55
2022/02/08 16:29:08;;;;;;;;;;;;;;;3.46;56.39;100603.41;117034;1185;21908;-58
2022/02/08 16:57:13;;;;;;;;;;;;;;;3.39;56.42;100652.02;116744;1188;23165;-56
2022/02/08 16:59:44;;;;;;;;;;;;;;;3.38;56.37;100650.78;116947;1188;22635;-58
2022/02/08 17:02:18;;;;;;;;;;;;;;;3.39;56.28;100655.67;116999;1186;23430;-55
2022/02/08 17:04:47;;;;;;;;;;;;;;;3.40;56.22;100662.98;117015;1188;22977;-58
2022/02/08 17:07:38;;;;;;;;;;;;;;;3.40;56.28;100664.19;116931;1191;21845;-55
2022/02/08 17:10:15;;;;;;;;;;;;;;;3.41;56.34;100662.30;116985;1188;23120;-56
2022/02/08 17:13:34;;;;;;;;;;;;;;;3.39;56.29;100667.48;117316;1178;23520;-57
2022/02/08 17:15:55;;;;;;;;;;;;;;;3.41;56.41;100665.77;117298;1185;21907;-57
2022/02/08 17:46:13;;;;;;;;;;;;;;;3.79;56.02;100670.89;117384;1185;21836;-56
2022/02/08 17:48:41;;;;;;;;;;;;;;;3.80;56.37;100674.73;117332;1185;22909;-57
2022/02/08 17:51:10;;;;;;;;;;;;;;;3.80;56.25;100672.83;117414;1185;21838;-55
2022/02/08 17:53:58;;;;;;;;;;;;;;;3.80;56.29;100673.88;117367;1185;23439;-55
2022/02/08 17:56:26;;;;;;;;;;;;;;;3.82;56.29;100674.94;117386;1185;22061;-58
2022/02/08 17:59:00;;;;;;;;;;;;;;;3.83;56.13;100673.40;117373;1176;21867;-58
2022/02/08 18:01:28;;;;;;;;;;;;;;;3.83;56.22;100674.28;117400;1185;23449;-59
2022/02/08 18:03:57;;;;;;;;;;;;;;;3.86;56.35;100678.16;117409;1185;23440;-59
2022/02/08 18:06:25;;;;;;;;;;;;;;;3.86;56.30;100677.11;117373;1185;23413;-56
2022/02/08 18:08:54;;;;;;;;;;;;;;;3.86;56.26;100675.04;117340;1182;23413;-56
2022/02/08 18:11:28;;;;;;;;;;;;;;;3.88;56.15;100676.11;117428;1186;21834;-56
2022/02/08 18:13:56;;;;;;;;;;;;;;;3.89;56.21;100675.42;117378;1182;23518;-57
2022/02/08 18:16:25;;;;;;;;;;;;;;;3.89;56.19;100673.71;117313;1185;23372;-58
2022/02/08 18:18:53;;;;;;;;;;;;;;;3.90;56.20;100677.20;117342;1186;21839;-57
2022/02/08 18:21:28;;;;;;;;;;;;;;;3.90;56.14;100673.55;117366;1186;24248;-56
2022/02/08 19:23:34;;;;;;;;;;;;;;;3.76;55.71;100683.34;117378;1183;22912;-58
2022/02/08 19:26:05;;;;;;;;;;;;;;;3.71;55.67;100682.03;117411;1182;23629;-56
2022/02/08 19:28:35;;;;;;;;;;;;;;;3.65;55.71;100685.90;117332;1186;22910;-58
2022/02/08 19:31:03;;;;;;;;;;;;;;;3.57;55.68;100690.92;117341;1185;23227;-55
2022/02/08 19:33:32;;;;;;;;;;;;;;;3.48;55.61;100688.48;117302;1183;23285;-55
2022/02/08 19:36:00;;;;;;;;;;;;;;;3.38;55.52;100686.89;117688;1185;23447;-57
2022/02/08 19:38:29;;;;;;;;;;;;;;;3.30;55.35;100685.99;117340;1185;23518;-58
2022/02/08 19:40:57;;;;;;;;;;;;;;;3.20;55.43;100688.91;117368;1185;22953;-54
2022/02/08 19:43:25;;;;;;;;;;;;;;;3.09;55.42;100687.27;117328;1185;23326;-55
2022/02/08 19:45:53;;;;;;;;;;;;;;;2.99;55.47;100692.94;117346;1185;23566;-56
2022/02/08 19:48:22;;;;;;;;;;;;;;;2.93;55.41;100696.60;117346;1185;21837;-55
2022/02/08 19:50:51;;;;;;;;;;;;;;;2.87;55.65;100696.96;117406;1182;23131;-57
2022/02/08 19:53:20;;;;;;;;;;;;;;;2.83;55.58;100701.23;117356;1185;21842;-54
2022/02/08 19:58:22;;;;;;;;;;;;;;;2.77;55.54;100695.88;117306;1182;22650;-55
2022/02/08 20:01:17;;;;;;;;;;;;;;;2.73;55.39;100693.87;117411;1182;21825;-56
2022/02/08 20:03:52;;;;;;;;;;;;;;;2.69;55.41;100691.69;117351;1185;21834;-56
2022/02/08 20:06:21;;;;;;;;;;;;;;;2.66;55.41;100694.55;117363;1185;22301;-56
2022/02/08 20:08:50;;;;;;;;;;;;;;;2.63;55.59;100696.91;117257;1185;22626;-55
2022/02/08 20:11:18;;;;;;;;;;;;;;;2.59;55.57;100700.45;117388;1185;24133;-56
2022/02/08 20:13:52;;;;;;;;;;;;;;;2.55;55.47;100704.67;117458;1186;23804;-55
2022/02/08 20:16:21;;;;;;;;;;;;;;;2.51;55.57;100698.02;117437;1186;21882;-57
2022/02/08 20:18:53;;;;;;;;;;;;;;;2.49;55.39;100701.39;117431;1185;21829;-54
2022/02/08 20:21:41;;;;;;;;;;;;;;;2.45;55.51;100698.02;117275;1185;21846;-56
2022/02/08 20:24:13;;;;;;;;;;;;;;;2.42;55.47;100694.83;117317;1185;23443;-57
2022/02/08 20:29:22;;;;;;;;;;;;;;;2.34;55.45;100687.86;117350;1183;21829;-57
2022/02/08 20:31:51;;;;;;;;;;;;;;;2.31;55.51;100687.09;117398;1183;21849;-57
2022/02/08 20:34:19;;;;;;;;;;;;;;;2.30;55.48;100686.21;117353;1185;21880;-57
2022/02/08 20:36:47;;;;;;;;;;;;;;;2.29;55.51;100691.20;117471;1185;23367;-56
2022/02/08 20:39:16;;;;;;;;;;;;;;;2.28;55.47;100687.86;117373;1183;24106;-55
2022/02/08 20:41:45;;;;;;;;;;;;;;;2.29;55.37;100691.02;117355;1185;22908;-58
2022/02/08 20:44:15;;;;;;;;;;;;;;;2.27;55.37;100687.31;117421;1185;21884;-55
2022/02/08 20:46:51;;;;;;;;;;;;;;;2.26;55.38;100689.72;117214;1185;21879;-55
2022/02/08 20:49:23;;;;;;;;;;;;;;;2.25;55.65;100683.46;117314;1182;23116;-56
2022/02/08 20:51:53;;;;;;;;;;;;;;;2.23;55.57;100685.83;117303;1182;23438;-58
2022/02/08 20:54:26;;;;;;;;;;;;;;;2.20;55.38;100686.63;117284;1181;23438;-56
2022/02/08 20:57:02;;;;;;;;;;;;;;;2.17;55.50;100687.61;117268;1185;22604;-57
2022/02/08 20:59:31;;;;;;;;;;;;;;;2.15;55.59;100689.79;117292;1182;21842;-57
2022/02/08 21:02:19;;;;;;;;;;;;;;;2.10;55.29;100689.99;117281;1182;23484;-57
2022/02/08 21:07:51;;;;;;;;;;;;;;;1.94;55.30;100681.95;116723;1185;21876;-55
2022/02/08 21:10:20;;;;;;;;;;;;;;;1.88;55.14;100678.50;117258;1185;22901;-58
2022/02/08 21:13:01;;;;;;;;;;;;;;;1.82;55.34;100672.44;117396;1185;23413;-55
2022/02/08 21:15:30;;;;;;;;;;;;;;;1.76;55.47;100674.70;117265;1185;21829;-59
2022/02/08 21:17:59;;;;;;;;;;;;;;;1.72;55.35;100673.70;117289;1182;21838;-54
2022/02/08 21:20:28;;;;;;;;;;;;;;;1.69;55.55;100675.02;117357;1182;21834;-57
2022/02/08 21:22:58;;;;;;;;;;;;;;;1.68;55.56;100672.91;117403;1185;22999;-57
2022/02/08 21:25:34;;;;;;;;;;;;;;;1.68;55.61;100674.80;117307;1185;21849;-57